sensor_id;sensor_type;location;lat;lon;timestamp;P1;durP1;ratioP1;P2;durP2;ratioP2
24787;SDS011;12883;52.662;5.196;2022-12-29T00:01:22;4.97;;;4.97;;
24787;SDS011;12883;52.662;5.196;2022-12-29T00:03:47;5.07;;;5.07;;
24787;SDS011;12883;52.662;5.196;2022-12-29T00:06:13;4.93;;;4.93;;
24787;SDS011;12883;52.662;5.196;2022-12-29T00:08:38;5.17;;;5.17;;
24787;SDS011;12883;52.662;5.196;2022-12-29T00:11:26;5.00;;;5.00;;
24787;SDS011;12883;52.662;5.196;2022-12-29T00:13:50;4.93;;;4.93;;
24787;SDS011;12883;52.662;5.196;2022-12-29T00:16:49;4.90;;;4.90;;
24787;SDS011;12883;52.662;5.196;2022-12-29T00:19:14;4.67;;;4.67;;
24787;SDS011;12883;52.662;5.196;2022-12-29T00:21:58;4.73;;;4.73;;
24787;SDS011;12883;52.662;5.196;2022-12-29T00:24:43;4.43;;;4.43;;
24787;SDS011;12883;52.662;5.196;2022-12-29T00:27:18;4.50;;;4.50;;
24787;SDS011;12883;52.662;5.196;2022-12-29T00:30:07;4.30;;;4.30;;
24787;SDS011;12883;52.662;5.196;2022-12-29T00:32:53;4.90;;;4.90;;
24787;SDS011;12883;52.662;5.196;2022-12-29T00:36:00;5.00;;;5.00;;
24787;SDS011;12883;52.662;5.196;2022-12-29T00:38:31;4.80;;;4.80;;
24787;SDS011;12883;52.662;5.196;2022-12-29T00:41:18;4.17;;;4.17;;
24787;SDS011;12883;52.662;5.196;2022-12-29T00:44:02;4.70;;;4.70;;
24787;SDS011;12883;52.662;5.196;2022-12-29T00:46:34;4.80;;;4.80;;
24787;SDS011;12883;52.662;5.196;2022-12-29T00:49:00;4.90;;;4.90;;
24787;SDS011;12883;52.662;5.196;2022-12-29T00:51:45;5.07;;;5.07;;
24787;SDS011;12883;52.662;5.196;2022-12-29T00:54:11;5.10;;;5.10;;
24787;SDS011;12883;52.662;5.196;2022-12-29T00:56:37;4.80;;;4.80;;
24787;SDS011;12883;52.662;5.196;2022-12-29T00:59:06;4.40;;;4.40;;
24787;SDS011;12883;52.662;5.196;2022-12-29T01:01:34;4.50;;;4.50;;
24787;SDS011;12883;52.662;5.196;2022-12-29T01:04:01;4.40;;;4.40;;
24787;SDS011;12883;52.662;5.196;2022-12-29T01:06:26;4.30;;;4.30;;
24787;SDS011;12883;52.662;5.196;2022-12-29T01:08:52;4.10;;;4.10;;
24787;SDS011;12883;52.662;5.196;2022-12-29T01:11:36;4.30;;;4.30;;
24787;SDS011;12883;52.662;5.196;2022-12-29T01:14:03;3.90;;;3.90;;
24787;SDS011;12883;52.662;5.196;2022-12-29T01:16:29;4.10;;;4.10;;
24787;SDS011;12883;52.662;5.196;2022-12-29T01:18:55;3.70;;;3.70;;
24787;SDS011;12883;52.662;5.196;2022-12-29T01:21:20;3.73;;;3.73;;
24787;SDS011;12883;52.662;5.196;2022-12-29T01:23:45;3.43;;;3.43;;
24787;SDS011;12883;52.662;5.196;2022-12-29T01:26:12;3.40;;;3.40;;
24787;SDS011;12883;52.662;5.196;2022-12-29T01:28:39;3.40;;;3.40;;
24787;SDS011;12883;52.662;5.196;2022-12-29T01:31:05;3.07;;;3.07;;
24787;SDS011;12883;52.662;5.196;2022-12-29T01:33:31;2.60;;;2.60;;
24787;SDS011;12883;52.662;5.196;2022-12-29T01:36:00;2.73;;;2.73;;
24787;SDS011;12883;52.662;5.196;2022-12-29T01:38:30;2.83;;;2.83;;
24787;SDS011;12883;52.662;5.196;2022-12-29T01:40:56;2.53;;;2.53;;
24787;SDS011;12883;52.662;5.196;2022-12-29T01:43:37;2.37;;;2.37;;
24787;SDS011;12883;52.662;5.196;2022-12-29T01:46:08;2.57;;;2.57;;
24787;SDS011;12883;52.662;5.196;2022-12-29T01:51:33;2.30;;;2.30;;
24787;SDS011;12883;52.662;5.196;2022-12-29T01:54:03;1.97;;;1.97;;
24787;SDS011;12883;52.662;5.196;2022-12-29T01:56:32;2.23;;;2.23;;
24787;SDS011;12883;52.662;5.196;2022-12-29T01:59:02;1.87;;;1.87;;
24787;SDS011;12883;52.662;5.196;2022-12-29T02:01:36;2.17;;;2.17;;
24787;SDS011;12883;52.662;5.196;2022-12-29T02:04:01;1.83;;;1.83;;
24787;SDS011;12883;52.662;5.196;2022-12-29T02:06:35;1.80;;;1.80;;
24787;SDS011;12883;52.662;5.196;2022-12-29T02:09:06;1.67;;;1.67;;
24787;SDS011;12883;52.662;5.196;2022-12-29T02:11:31;1.97;;;1.97;;
24787;SDS011;12883;52.662;5.196;2022-12-29T02:13:57;2.00;;;2.00;;
24787;SDS011;12883;52.662;5.196;2022-12-29T02:27:48;2.37;;;2.37;;
24787;SDS011;12883;52.662;5.196;2022-12-29T02:32:51;1.80;;;1.80;;
24787;SDS011;12883;52.662;5.196;2022-12-29T02:38:27;1.80;;;1.80;;
24787;SDS011;12883;52.662;5.196;2022-12-29T02:41:05;2.03;;;2.03;;
24787;SDS011;12883;52.662;5.196;2022-12-29T02:49:14;1.53;;;1.53;;
24787;SDS011;12883;52.662;5.196;2022-12-29T02:52:27;1.73;;;1.73;;
24787;SDS011;12883;52.662;5.196;2022-12-29T02:54:36;2.07;;;2.07;;
24787;SDS011;12883;52.662;5.196;2022-12-29T02:59:52;1.93;;;1.93;;
24787;SDS011;12883;52.662;5.196;2022-12-29T03:05:26;2.33;;;2.33;;
24787;SDS011;12883;52.662;5.196;2022-12-29T03:10:36;2.33;;;2.33;;
24787;SDS011;12883;52.662;5.196;2022-12-29T03:19:08;2.30;;;2.30;;
24787;SDS011;12883;52.662;5.196;2022-12-29T03:21:42;1.83;;;1.83;;
24787;SDS011;12883;52.662;5.196;2022-12-29T03:24:32;1.97;;;1.97;;
24787;SDS011;12883;52.662;5.196;2022-12-29T03:27:03;2.70;;;2.70;;
24787;SDS011;12883;52.662;5.196;2022-12-29T03:29:33;2.50;;;2.50;;
24787;SDS011;12883;52.662;5.196;2022-12-29T03:32:03;1.90;;;1.90;;
24787;SDS011;12883;52.662;5.196;2022-12-29T03:34:31;2.93;;;2.93;;
24787;SDS011;12883;52.662;5.196;2022-12-29T03:37:02;3.03;;;3.03;;
24787;SDS011;12883;52.662;5.196;2022-12-29T03:39:31;3.27;;;3.27;;
24787;SDS011;12883;52.662;5.196;2022-12-29T03:42:01;3.80;;;3.80;;
24787;SDS011;12883;52.662;5.196;2022-12-29T03:44:38;3.23;;;3.23;;
24787;SDS011;12883;52.662;5.196;2022-12-29T03:47:06;3.43;;;3.43;;
24787;SDS011;12883;52.662;5.196;2022-12-29T03:49:32;3.60;;;3.60;;
24787;SDS011;12883;52.662;5.196;2022-12-29T03:51:58;2.80;;;2.80;;
24787;SDS011;12883;52.662;5.196;2022-12-29T03:54:23;2.83;;;2.83;;
24787;SDS011;12883;52.662;5.196;2022-12-29T03:56:49;2.90;;;2.90;;
24787;SDS011;12883;52.662;5.196;2022-12-29T03:59:15;2.83;;;2.83;;
24787;SDS011;12883;52.662;5.196;2022-12-29T04:01:40;3.00;;;3.00;;
24787;SDS011;12883;52.662;5.196;2022-12-29T04:04:06;4.00;;;3.97;;
24787;SDS011;12883;52.662;5.196;2022-12-29T04:06:31;4.67;;;4.57;;
24787;SDS011;12883;52.662;5.196;2022-12-29T04:08:56;4.17;;;4.17;;
24787;SDS011;12883;52.662;5.196;2022-12-29T04:11:22;4.27;;;4.17;;
24787;SDS011;12883;52.662;5.196;2022-12-29T04:13:48;4.13;;;4.13;;
24787;SDS011;12883;52.662;5.196;2022-12-29T04:16:13;4.70;;;4.60;;
24787;SDS011;12883;52.662;5.196;2022-12-29T04:18:38;4.57;;;4.57;;
24787;SDS011;12883;52.662;5.196;2022-12-29T04:21:04;4.33;;;4.23;;
24787;SDS011;12883;52.662;5.196;2022-12-29T04:23:31;4.27;;;4.20;;
24787;SDS011;12883;52.662;5.196;2022-12-29T04:25:58;4.57;;;4.57;;
24787;SDS011;12883;52.662;5.196;2022-12-29T04:28:23;4.30;;;4.20;;
24787;SDS011;12883;52.662;5.196;2022-12-29T04:30:49;4.47;;;4.37;;
24787;SDS011;12883;52.662;5.196;2022-12-29T04:33:15;3.90;;;3.90;;
24787;SDS011;12883;52.662;5.196;2022-12-29T04:35:41;3.57;;;3.57;;
24787;SDS011;12883;52.662;5.196;2022-12-29T04:38:08;3.83;;;3.83;;
24787;SDS011;12883;52.662;5.196;2022-12-29T04:40:33;3.57;;;3.57;;
24787;SDS011;12883;52.662;5.196;2022-12-29T04:42:58;3.30;;;3.30;;
24787;SDS011;12883;52.662;5.196;2022-12-29T04:45:24;3.90;;;3.90;;
24787;SDS011;12883;52.662;5.196;2022-12-29T04:47:49;4.03;;;4.03;;
24787;SDS011;12883;52.662;5.196;2022-12-29T04:50:14;3.60;;;3.60;;
24787;SDS011;12883;52.662;5.196;2022-12-29T04:52:40;3.40;;;3.40;;
24787;SDS011;12883;52.662;5.196;2022-12-29T04:55:06;2.77;;;2.77;;
24787;SDS011;12883;52.662;5.196;2022-12-29T04:57:31;3.37;;;3.37;;
24787;SDS011;12883;52.662;5.196;2022-12-29T04:59:57;3.60;;;3.60;;
24787;SDS011;12883;52.662;5.196;2022-12-29T05:02:22;3.70;;;3.70;;
24787;SDS011;12883;52.662;5.196;2022-12-29T05:04:48;3.73;;;3.73;;
24787;SDS011;12883;52.662;5.196;2022-12-29T05:07:14;3.43;;;3.43;;
24787;SDS011;12883;52.662;5.196;2022-12-29T05:09:39;3.47;;;3.47;;
24787;SDS011;12883;52.662;5.196;2022-12-29T05:12:05;3.80;;;3.80;;
24787;SDS011;12883;52.662;5.196;2022-12-29T05:14:30;3.63;;;3.63;;
24787;SDS011;12883;52.662;5.196;2022-12-29T05:16:56;4.13;;;4.07;;
24787;SDS011;12883;52.662;5.196;2022-12-29T05:19:21;5.33;;;5.23;;
24787;SDS011;12883;52.662;5.196;2022-12-29T05:21:47;4.80;;;4.70;;
24787;SDS011;12883;52.662;5.196;2022-12-29T05:24:12;6.00;;;5.90;;
24787;SDS011;12883;52.662;5.196;2022-12-29T05:26:38;5.40;;;5.30;;
24787;SDS011;12883;52.662;5.196;2022-12-29T05:29:03;6.17;;;6.07;;
24787;SDS011;12883;52.662;5.196;2022-12-29T05:31:29;5.47;;;5.37;;
24787;SDS011;12883;52.662;5.196;2022-12-29T05:33:54;5.33;;;5.23;;
24787;SDS011;12883;52.662;5.196;2022-12-29T05:36:19;5.47;;;5.37;;
24787;SDS011;12883;52.662;5.196;2022-12-29T05:38:45;5.37;;;5.27;;
24787;SDS011;12883;52.662;5.196;2022-12-29T05:41:10;4.90;;;4.80;;
24787;SDS011;12883;52.662;5.196;2022-12-29T05:43:36;5.97;;;5.87;;
24787;SDS011;12883;52.662;5.196;2022-12-29T05:46:01;4.53;;;4.43;;
24787;SDS011;12883;52.662;5.196;2022-12-29T05:48:28;5.87;;;5.77;;
24787;SDS011;12883;52.662;5.196;2022-12-29T05:50:53;5.03;;;4.93;;
24787;SDS011;12883;52.662;5.196;2022-12-29T05:53:18;4.90;;;4.80;;
24787;SDS011;12883;52.662;5.196;2022-12-29T05:55:44;4.47;;;4.47;;
24787;SDS011;12883;52.662;5.196;2022-12-29T05:58:11;4.47;;;4.37;;
24787;SDS011;12883;52.662;5.196;2022-12-29T06:00:37;4.83;;;4.73;;
24787;SDS011;12883;52.662;5.196;2022-12-29T06:03:02;4.07;;;4.00;;
24787;SDS011;12883;52.662;5.196;2022-12-29T06:05:28;4.00;;;4.00;;
24787;SDS011;12883;52.662;5.196;2022-12-29T06:07:53;5.57;;;5.47;;
24787;SDS011;12883;52.662;5.196;2022-12-29T06:10:19;4.63;;;4.53;;
24787;SDS011;12883;52.662;5.196;2022-12-29T06:12:44;5.13;;;5.03;;
24787;SDS011;12883;52.662;5.196;2022-12-29T06:15:10;6.00;;;5.90;;
24787;SDS011;12883;52.662;5.196;2022-12-29T06:17:35;5.63;;;5.53;;
24787;SDS011;12883;52.662;5.196;2022-12-29T06:20:01;5.63;;;5.53;;
24787;SDS011;12883;52.662;5.196;2022-12-29T06:22:27;5.90;;;5.80;;
24787;SDS011;12883;52.662;5.196;2022-12-29T06:24:52;5.50;;;5.40;;
24787;SDS011;12883;52.662;5.196;2022-12-29T06:27:17;5.33;;;5.33;;
24787;SDS011;12883;52.662;5.196;2022-12-29T06:29:43;5.70;;;5.60;;
24787;SDS011;12883;52.662;5.196;2022-12-29T06:32:08;5.57;;;5.47;;
24787;SDS011;12883;52.662;5.196;2022-12-29T06:34:34;5.50;;;5.40;;
24787;SDS011;12883;52.662;5.196;2022-12-29T06:36:59;5.10;;;5.00;;
24787;SDS011;12883;52.662;5.196;2022-12-29T06:39:26;5.10;;;5.00;;
24787;SDS011;12883;52.662;5.196;2022-12-29T06:41:51;4.27;;;4.17;;
24787;SDS011;12883;52.662;5.196;2022-12-29T06:44:18;4.17;;;4.07;;
24787;SDS011;12883;52.662;5.196;2022-12-29T06:46:43;4.87;;;4.77;;
24787;SDS011;12883;52.662;5.196;2022-12-29T06:49:08;4.97;;;4.87;;
24787;SDS011;12883;52.662;5.196;2022-12-29T06:51:34;4.73;;;4.63;;
24787;SDS011;12883;52.662;5.196;2022-12-29T06:53:59;5.20;;;5.10;;
24787;SDS011;12883;52.662;5.196;2022-12-29T06:56:24;5.50;;;5.40;;
24787;SDS011;12883;52.662;5.196;2022-12-29T06:58:50;5.03;;;4.97;;
24787;SDS011;12883;52.662;5.196;2022-12-29T07:01:15;4.93;;;4.83;;
24787;SDS011;12883;52.662;5.196;2022-12-29T07:03:41;4.57;;;4.53;;
24787;SDS011;12883;52.662;5.196;2022-12-29T07:06:08;5.53;;;5.43;;
24787;SDS011;12883;52.662;5.196;2022-12-29T07:08:33;6.57;;;6.47;;
24787;SDS011;12883;52.662;5.196;2022-12-29T07:10:58;5.50;;;5.40;;
24787;SDS011;12883;52.662;5.196;2022-12-29T07:13:24;6.60;;;6.50;;
24787;SDS011;12883;52.662;5.196;2022-12-29T07:15:49;6.00;;;5.90;;
24787;SDS011;12883;52.662;5.196;2022-12-29T07:18:14;6.03;;;5.93;;
24787;SDS011;12883;52.662;5.196;2022-12-29T07:20:40;5.80;;;5.70;;
24787;SDS011;12883;52.662;5.196;2022-12-29T07:23:05;7.37;;;7.27;;
24787;SDS011;12883;52.662;5.196;2022-12-29T07:25:31;6.63;;;6.53;;
24787;SDS011;12883;52.662;5.196;2022-12-29T07:27:56;6.83;;;6.73;;
24787;SDS011;12883;52.662;5.196;2022-12-29T07:30:21;5.83;;;5.73;;
24787;SDS011;12883;52.662;5.196;2022-12-29T07:32:47;6.30;;;6.20;;
24787;SDS011;12883;52.662;5.196;2022-12-29T07:35:12;7.30;;;7.20;;
24787;SDS011;12883;52.662;5.196;2022-12-29T07:37:37;6.80;;;6.70;;
24787;SDS011;12883;52.662;5.196;2022-12-29T07:40:03;6.97;;;6.87;;
24787;SDS011;12883;52.662;5.196;2022-12-29T07:42:30;6.83;;;6.73;;
24787;SDS011;12883;52.662;5.196;2022-12-29T07:44:55;7.67;;;7.57;;
24787;SDS011;12883;52.662;5.196;2022-12-29T07:47:21;7.43;;;7.33;;
24787;SDS011;12883;52.662;5.196;2022-12-29T07:49:46;7.80;;;7.70;;
24787;SDS011;12883;52.662;5.196;2022-12-29T07:52:12;6.73;;;6.63;;
24787;SDS011;12883;52.662;5.196;2022-12-29T07:54:37;7.20;;;7.10;;
24787;SDS011;12883;52.662;5.196;2022-12-29T07:57:04;6.47;;;6.37;;
24787;SDS011;12883;52.662;5.196;2022-12-29T07:59:30;7.57;;;7.47;;
24787;SDS011;12883;52.662;5.196;2022-12-29T08:01:56;6.80;;;6.70;;
24787;SDS011;12883;52.662;5.196;2022-12-29T08:04:21;7.07;;;6.97;;
24787;SDS011;12883;52.662;5.196;2022-12-29T08:06:46;7.17;;;7.07;;
24787;SDS011;12883;52.662;5.196;2022-12-29T08:09:12;6.13;;;6.03;;
24787;SDS011;12883;52.662;5.196;2022-12-29T08:11:37;6.53;;;6.43;;
24787;SDS011;12883;52.662;5.196;2022-12-29T08:14:03;6.00;;;5.90;;
24787;SDS011;12883;52.662;5.196;2022-12-29T08:16:28;6.07;;;5.97;;
24787;SDS011;12883;52.662;5.196;2022-12-29T08:18:54;6.97;;;6.87;;
24787;SDS011;12883;52.662;5.196;2022-12-29T08:21:19;6.13;;;6.03;;
24787;SDS011;12883;52.662;5.196;2022-12-29T08:23:45;6.77;;;6.67;;
24787;SDS011;12883;52.662;5.196;2022-12-29T08:26:10;7.77;;;7.67;;
24787;SDS011;12883;52.662;5.196;2022-12-29T08:28:36;7.30;;;7.20;;
24787;SDS011;12883;52.662;5.196;2022-12-29T08:31:01;6.87;;;6.77;;
24787;SDS011;12883;52.662;5.196;2022-12-29T08:33:28;5.77;;;5.67;;
24787;SDS011;12883;52.662;5.196;2022-12-29T08:36:00;6.37;;;6.27;;
24787;SDS011;12883;52.662;5.196;2022-12-29T08:38:28;5.03;;;4.93;;
24787;SDS011;12883;52.662;5.196;2022-12-29T08:40:54;5.83;;;5.73;;
24787;SDS011;12883;52.662;5.196;2022-12-29T08:43:20;5.13;;;5.03;;
24787;SDS011;12883;52.662;5.196;2022-12-29T08:45:45;4.67;;;4.57;;
24787;SDS011;12883;52.662;5.196;2022-12-29T08:48:11;4.67;;;4.57;;
24787;SDS011;12883;52.662;5.196;2022-12-29T08:50:36;5.00;;;4.90;;
24787;SDS011;12883;52.662;5.196;2022-12-29T08:53:01;4.33;;;4.33;;
24787;SDS011;12883;52.662;5.196;2022-12-29T08:55:27;4.80;;;4.70;;
24787;SDS011;12883;52.662;5.196;2022-12-29T08:57:52;5.30;;;5.20;;
24787;SDS011;12883;52.662;5.196;2022-12-29T09:00:17;5.23;;;5.20;;
24787;SDS011;12883;52.662;5.196;2022-12-29T09:02:43;5.03;;;4.93;;
24787;SDS011;12883;52.662;5.196;2022-12-29T09:05:08;5.17;;;5.07;;
24787;SDS011;12883;52.662;5.196;2022-12-29T09:07:34;4.93;;;4.83;;
24787;SDS011;12883;52.662;5.196;2022-12-29T09:10:00;4.90;;;4.80;;
24787;SDS011;12883;52.662;5.196;2022-12-29T09:12:26;5.20;;;5.10;;
24787;SDS011;12883;52.662;5.196;2022-12-29T09:14:51;5.30;;;5.20;;
24787;SDS011;12883;52.662;5.196;2022-12-29T09:17:17;5.60;;;5.50;;
24787;SDS011;12883;52.662;5.196;2022-12-29T09:20:01;5.47;;;5.37;;
24787;SDS011;12883;52.662;5.196;2022-12-29T09:22:27;5.97;;;5.87;;
24787;SDS011;12883;52.662;5.196;2022-12-29T09:24:52;5.47;;;5.37;;
24787;SDS011;12883;52.662;5.196;2022-12-29T09:27:17;6.17;;;6.07;;
24787;SDS011;12883;52.662;5.196;2022-12-29T09:29:43;5.57;;;5.47;;
24787;SDS011;12883;52.662;5.196;2022-12-29T09:32:08;5.13;;;5.03;;
24787;SDS011;12883;52.662;5.196;2022-12-29T09:34:34;6.87;;;6.77;;
24787;SDS011;12883;52.662;5.196;2022-12-29T09:36:59;5.37;;;5.27;;
24787;SDS011;12883;52.662;5.196;2022-12-29T09:39:24;6.57;;;6.47;;
24787;SDS011;12883;52.662;5.196;2022-12-29T09:44:56;7.67;;;7.57;;
24787;SDS011;12883;52.662;5.196;2022-12-29T09:47:33;6.57;;;6.47;;
24787;SDS011;12883;52.662;5.196;2022-12-29T09:50:44;6.27;;;6.17;;
24787;SDS011;12883;52.662;5.196;2022-12-29T09:53:14;6.83;;;6.73;;
24787;SDS011;12883;52.662;5.196;2022-12-29T09:55:47;6.97;;;6.87;;
24787;SDS011;12883;52.662;5.196;2022-12-29T09:58:28;7.70;;;7.60;;
24787;SDS011;12883;52.662;5.196;2022-12-29T10:01:01;8.70;;;8.50;;
24787;SDS011;12883;52.662;5.196;2022-12-29T10:03:44;8.97;;;8.77;;
24787;SDS011;12883;52.662;5.196;2022-12-29T10:17:01;9.93;;;9.73;;
24787;SDS011;12883;52.662;5.196;2022-12-29T10:19:38;8.47;;;8.27;;
24787;SDS011;12883;52.662;5.196;2022-12-29T10:25:15;9.67;;;9.47;;
24787;SDS011;12883;52.662;5.196;2022-12-29T10:27:45;10.60;;;10.40;;
24787;SDS011;12883;52.662;5.196;2022-12-29T10:30:13;11.33;;;11.13;;
24787;SDS011;12883;52.662;5.196;2022-12-29T10:32:40;9.50;;;9.30;;
24787;SDS011;12883;52.662;5.196;2022-12-29T10:35:21;9.97;;;9.77;;
24787;SDS011;12883;52.662;5.196;2022-12-29T10:41:21;10.80;;;10.60;;
24787;SDS011;12883;52.662;5.196;2022-12-29T10:43:51;11.33;;;11.13;;
24787;SDS011;12883;52.662;5.196;2022-12-29T10:46:24;11.00;;;10.80;;
24787;SDS011;12883;52.662;5.196;2022-12-29T10:48:53;10.43;;;10.23;;
24787;SDS011;12883;52.662;5.196;2022-12-29T10:51:28;8.97;;;8.77;;
24787;SDS011;12883;52.662;5.196;2022-12-29T10:56:46;8.20;;;8.00;;
24787;SDS011;12883;52.662;5.196;2022-12-29T10:59:19;6.37;;;6.27;;
24787;SDS011;12883;52.662;5.196;2022-12-29T11:04:51;4.50;;;4.43;;
24787;SDS011;12883;52.662;5.196;2022-12-29T11:07:33;4.73;;;4.63;;
24787;SDS011;12883;52.662;5.196;2022-12-29T11:12:57;6.83;;;6.73;;
24787;SDS011;12883;52.662;5.196;2022-12-29T11:15:27;4.30;;;4.20;;
24787;SDS011;12883;52.662;5.196;2022-12-29T11:18:01;4.37;;;4.27;;
24787;SDS011;12883;52.662;5.196;2022-12-29T11:20:35;4.17;;;4.07;;
24787;SDS011;12883;52.662;5.196;2022-12-29T11:23:03;5.17;;;5.07;;
24787;SDS011;12883;52.662;5.196;2022-12-29T11:25:45;4.03;;;4.03;;
24787;SDS011;12883;52.662;5.196;2022-12-29T11:28:16;4.50;;;4.50;;
24787;SDS011;12883;52.662;5.196;2022-12-29T11:30:41;4.90;;;4.80;;
24787;SDS011;12883;52.662;5.196;2022-12-29T11:33:08;4.17;;;4.17;;
24787;SDS011;12883;52.662;5.196;2022-12-29T11:38:03;4.10;;;4.00;;
24787;SDS011;12883;52.662;5.196;2022-12-29T11:40:29;4.03;;;4.03;;
24787;SDS011;12883;52.662;5.196;2022-12-29T11:42:58;3.43;;;3.43;;
24787;SDS011;12883;52.662;5.196;2022-12-29T11:45:35;3.53;;;3.53;;
24787;SDS011;12883;52.662;5.196;2022-12-29T11:48:17;4.97;;;4.90;;
24787;SDS011;12883;52.662;5.196;2022-12-29T11:50:54;3.57;;;3.57;;
24787;SDS011;12883;52.662;5.196;2022-12-29T11:53:24;3.43;;;3.43;;
24787;SDS011;12883;52.662;5.196;2022-12-29T11:56:15;3.10;;;3.10;;
24787;SDS011;12883;52.662;5.196;2022-12-29T11:58:42;4.10;;;4.10;;
24787;SDS011;12883;52.662;5.196;2022-12-29T12:01:13;4.20;;;4.17;;
24787;SDS011;12883;52.662;5.196;2022-12-29T12:04:06;4.10;;;4.10;;
24787;SDS011;12883;52.662;5.196;2022-12-29T12:06:45;3.53;;;3.53;;
24787;SDS011;12883;52.662;5.196;2022-12-29T12:09:22;4.13;;;4.13;;
24787;SDS011;12883;52.662;5.196;2022-12-29T12:11:54;4.30;;;4.30;;
24787;SDS011;12883;52.662;5.196;2022-12-29T12:14:23;3.23;;;3.23;;
24787;SDS011;12883;52.662;5.196;2022-12-29T12:17:04;4.13;;;4.13;;
24787;SDS011;12883;52.662;5.196;2022-12-29T12:19:43;4.00;;;4.00;;
24787;SDS011;12883;52.662;5.196;2022-12-29T12:22:41;3.70;;;3.70;;
24787;SDS011;12883;52.662;5.196;2022-12-29T12:25:19;3.67;;;3.67;;
24787;SDS011;12883;52.662;5.196;2022-12-29T12:27:52;3.70;;;3.70;;
24787;SDS011;12883;52.662;5.196;2022-12-29T12:30:25;2.83;;;2.83;;
24787;SDS011;12883;52.662;5.196;2022-12-29T12:33:02;2.90;;;2.90;;
24787;SDS011;12883;52.662;5.196;2022-12-29T12:36:04;4.43;;;4.33;;
24787;SDS011;12883;52.662;5.196;2022-12-29T12:41:34;4.23;;;4.23;;
24787;SDS011;12883;52.662;5.196;2022-12-29T13:01:42;4.87;;;4.77;;
24787;SDS011;12883;52.662;5.196;2022-12-29T13:16:35;4.27;;;4.17;;
24787;SDS011;12883;52.662;5.196;2022-12-29T13:19:23;3.90;;;3.90;;
24787;SDS011;12883;52.662;5.196;2022-12-29T13:27:20;3.77;;;3.77;;
24787;SDS011;12883;52.662;5.196;2022-12-29T13:38:22;4.10;;;4.10;;
24787;SDS011;12883;52.662;5.196;2022-12-29T13:40:55;4.43;;;4.43;;
24787;SDS011;12883;52.662;5.196;2022-12-29T13:43:24;3.53;;;3.53;;
24787;SDS011;12883;52.662;5.196;2022-12-29T13:46:26;3.13;;;3.13;;
24787;SDS011;12883;52.662;5.196;2022-12-29T13:48:49;4.60;;;4.50;;
24787;SDS011;12883;52.662;5.196;2022-12-29T13:51:19;4.57;;;4.47;;
24787;SDS011;12883;52.662;5.196;2022-12-29T13:54:04;3.90;;;3.90;;
24787;SDS011;12883;52.662;5.196;2022-12-29T13:56:46;3.57;;;3.57;;
24787;SDS011;12883;52.662;5.196;2022-12-29T14:02:25;3.33;;;3.33;;
24787;SDS011;12883;52.662;5.196;2022-12-29T14:07:47;3.43;;;3.43;;
24787;SDS011;12883;52.662;5.196;2022-12-29T14:10:32;4.33;;;4.23;;
24787;SDS011;12883;52.662;5.196;2022-12-29T14:13:06;3.93;;;3.93;;
24787;SDS011;12883;52.662;5.196;2022-12-29T14:15:37;4.43;;;4.33;;
24787;SDS011;12883;52.662;5.196;2022-12-29T14:18:20;2.93;;;2.93;;
24787;SDS011;12883;52.662;5.196;2022-12-29T14:28:53;4.57;;;4.47;;
24787;SDS011;12883;52.662;5.196;2022-12-29T14:39:43;3.90;;;3.83;;
24787;SDS011;12883;52.662;5.196;2022-12-29T14:47:39;3.13;;;3.13;;
24787;SDS011;12883;52.662;5.196;2022-12-29T14:52:35;3.63;;;3.63;;
24787;SDS011;12883;52.662;5.196;2022-12-29T14:57:43;3.37;;;3.37;;
24787;SDS011;12883;52.662;5.196;2022-12-29T15:03:07;3.80;;;3.80;;
24787;SDS011;12883;52.662;5.196;2022-12-29T15:05:43;4.03;;;4.03;;
24787;SDS011;12883;52.662;5.196;2022-12-29T15:08:11;4.53;;;4.43;;
24787;SDS011;12883;52.662;5.196;2022-12-29T15:11:00;3.87;;;3.83;;
24787;SDS011;12883;52.662;5.196;2022-12-29T15:13:33;4.73;;;4.63;;
24787;SDS011;12883;52.662;5.196;2022-12-29T15:16:01;4.40;;;4.30;;
24787;SDS011;12883;52.662;5.196;2022-12-29T15:18:30;4.27;;;4.27;;
24787;SDS011;12883;52.662;5.196;2022-12-29T15:21:04;4.70;;;4.60;;
24787;SDS011;12883;52.662;5.196;2022-12-29T15:23:32;4.20;;;4.20;;
24787;SDS011;12883;52.662;5.196;2022-12-29T15:28:26;3.43;;;3.43;;
24787;SDS011;12883;52.662;5.196;2022-12-29T15:31:04;3.67;;;3.67;;
24787;SDS011;12883;52.662;5.196;2022-12-29T15:33:37;4.10;;;4.10;;
24787;SDS011;12883;52.662;5.196;2022-12-29T15:36:05;3.57;;;3.57;;
24787;SDS011;12883;52.662;5.196;2022-12-29T15:38:36;3.33;;;3.33;;
24787;SDS011;12883;52.662;5.196;2022-12-29T15:41:06;3.87;;;3.87;;
24787;SDS011;12883;52.662;5.196;2022-12-29T15:43:48;3.07;;;3.07;;
24787;SDS011;12883;52.662;5.196;2022-12-29T15:46:22;3.90;;;3.90;;
24787;SDS011;12883;52.662;5.196;2022-12-29T15:48:48;4.00;;;4.00;;
24787;SDS011;12883;52.662;5.196;2022-12-29T15:51:18;5.30;;;5.20;;
24787;SDS011;12883;52.662;5.196;2022-12-29T15:53:47;5.13;;;5.03;;
24787;SDS011;12883;52.662;5.196;2022-12-29T15:56:15;5.03;;;4.93;;
24787;SDS011;12883;52.662;5.196;2022-12-29T15:58:45;5.50;;;5.40;;
24787;SDS011;12883;52.662;5.196;2022-12-29T16:01:17;4.17;;;4.07;;
24787;SDS011;12883;52.662;5.196;2022-12-29T16:03:44;4.90;;;4.80;;
24787;SDS011;12883;52.662;5.196;2022-12-29T16:06:24;5.37;;;5.27;;
24787;SDS011;12883;52.662;5.196;2022-12-29T16:09:41;6.33;;;6.23;;
24787;SDS011;12883;52.662;5.196;2022-12-29T16:11:42;5.37;;;5.27;;
24787;SDS011;12883;52.662;5.196;2022-12-29T16:14:16;4.60;;;4.50;;
24787;SDS011;12883;52.662;5.196;2022-12-29T16:16:44;6.20;;;6.10;;
24787;SDS011;12883;52.662;5.196;2022-12-29T16:19:13;4.97;;;4.87;;
24787;SDS011;12883;52.662;5.196;2022-12-29T16:21:47;6.17;;;6.07;;
24787;SDS011;12883;52.662;5.196;2022-12-29T16:24:14;6.23;;;6.13;;
24787;SDS011;12883;52.662;5.196;2022-12-29T16:26:49;5.83;;;5.73;;
24787;SDS011;12883;52.662;5.196;2022-12-29T16:29:19;5.37;;;5.27;;
24787;SDS011;12883;52.662;5.196;2022-12-29T16:31:51;6.27;;;6.17;;
24787;SDS011;12883;52.662;5.196;2022-12-29T16:34:28;5.90;;;5.80;;
24787;SDS011;12883;52.662;5.196;2022-12-29T16:36:56;5.10;;;5.00;;
24787;SDS011;12883;52.662;5.196;2022-12-29T16:39:40;5.53;;;5.43;;
24787;SDS011;12883;52.662;5.196;2022-12-29T16:42:54;5.23;;;5.13;;
24787;SDS011;12883;52.662;5.196;2022-12-29T16:45:25;5.27;;;5.17;;
24787;SDS011;12883;52.662;5.196;2022-12-29T16:48:30;4.77;;;4.67;;
24787;SDS011;12883;52.662;5.196;2022-12-29T16:51:03;4.93;;;4.83;;
24787;SDS011;12883;52.662;5.196;2022-12-29T16:53:40;4.77;;;4.67;;
24787;SDS011;12883;52.662;5.196;2022-12-29T16:56:15;6.37;;;6.27;;
24787;SDS011;12883;52.662;5.196;2022-12-29T16:58:52;5.00;;;4.90;;
24787;SDS011;12883;52.662;5.196;2022-12-29T17:01:26;4.50;;;4.40;;
24787;SDS011;12883;52.662;5.196;2022-12-29T17:04:05;5.77;;;5.67;;
24787;SDS011;12883;52.662;5.196;2022-12-29T17:06:32;4.47;;;4.37;;
24787;SDS011;12883;52.662;5.196;2022-12-29T17:08:58;5.10;;;5.00;;
24787;SDS011;12883;52.662;5.196;2022-12-29T17:11:27;4.77;;;4.67;;
24787;SDS011;12883;52.662;5.196;2022-12-29T17:16:51;4.83;;;4.73;;
24787;SDS011;12883;52.662;5.196;2022-12-29T17:19:17;5.80;;;5.70;;
24787;SDS011;12883;52.662;5.196;2022-12-29T17:21:45;5.57;;;5.47;;
24787;SDS011;12883;52.662;5.196;2022-12-29T17:24:17;5.60;;;5.50;;
24787;SDS011;12883;52.662;5.196;2022-12-29T17:26:45;5.73;;;5.63;;
24787;SDS011;12883;52.662;5.196;2022-12-29T17:29:35;5.33;;;5.23;;
24787;SDS011;12883;52.662;5.196;2022-12-29T17:32:02;5.97;;;5.87;;
24787;SDS011;12883;52.662;5.196;2022-12-29T17:34:29;5.10;;;5.00;;
24787;SDS011;12883;52.662;5.196;2022-12-29T17:36:56;5.53;;;5.43;;
24787;SDS011;12883;52.662;5.196;2022-12-29T17:39:21;5.17;;;5.07;;
24787;SDS011;12883;52.662;5.196;2022-12-29T17:41:47;4.80;;;4.70;;
24787;SDS011;12883;52.662;5.196;2022-12-29T17:44:16;5.70;;;5.60;;
24787;SDS011;12883;52.662;5.196;2022-12-29T17:46:44;4.77;;;4.67;;